EPGDEPMO

Guest
Details From EPGD - LECH WALESA
To EPMO - MODLIN
Flight Number -
Tags generated
Created
Modified
Stats Distance 142 nm / 263 km
Max Altitude 13,200 ft / 4,023 m
Waypoints 3
Social Downloads 1
Likes 0
Share VATSIM

Download

Looking for another format? Having issues loading an existing format? Contact us
Advertisement - Login to hide

Notes

Basic altitude profile: - Ascent Rate: 2500ft/min - Ascent Speed: 250kts - Cruise Altitude: 35000ft - Cruise Speed: 420kts - Descent Rate: 1500ft/min - Descent Speed: 250kts Options: - Use NATs: yes - Use PACOTS: yes - Use low airways: yes - Use high airways: yes

Route

EPGD SOMOR EPMO

ID Type Via Altitude Latitude Longitude Leg Dist Tot Dist Heading (true) Name
O EPGD APT - 0 ft / 0 m 54.37617˚ 18.47188˚ - 0 nm - LECH WALESA
SOMOR FIX - 13,200 ft / 4,023 m 53.22694˚ 19.35028˚ 75 nm 75 nm 155° / 156° -
O EPMO APT - 0 ft / 0 m 52.45111˚ 20.65178˚ 66 nm 142 nm 134° / 135° MODLIN

Altitude Profile

Advertisement - Login to hide

EPGD

Details ICAO EPGD (GDN)
Name LECH WALESA
Region Poland
Timezone Europe/Warsaw (UTC+2.0)
Stats Elevation 489 ft / 149 m (AMSL)
Location 54.376167° 18.471884°
Runways 1
Magnetic Variation 5.512° E

METAR

EPGD 262200Z 10005KT CAVOK 13/13 Q1024

Decode

TAF

TAF TAF EPGD 261730Z 2618/2718 VRB04KT CAVOK TEMPO 2618/2622 SHRA BKN025CB BECMG 2620/2622 3000 BR BKN005 PROB40 2700/2706 0400 FG BKN001 BECMG 2706/2709 04010KT CAVOK TEMPO 2712/2716 3000 TSRA BKN030CB

Decode

Departure Runways

ID Width Length Bearing (true) Bearing (mag) Surface Threshold Offset Overrun Length
11 148 ft / 45 m 9,158 ft / 2,791 m 112.96° 107.45° Asphalt 0 ft / 0 m 0 ft / 0 m
29 148 ft / 45 m 9,158 ft / 2,791 m 293.00° 287.49° Asphalt 0 ft / 0 m 0 ft / 0 m

EPMO

Details ICAO EPMO (WMI)
Name MODLIN
Region Poland
Timezone Europe/Warsaw (UTC+2.0)
Stats Elevation 341 ft / 104 m (AMSL)
Location 52.451110° 20.651778°
Runways 1
Magnetic Variation 5.824° E

METAR

EPMO 262200Z 02003KT 5000 BR NSC 14/14 Q1023

Decode

TAF

TAF EPMO 261730Z 2618/2718 07012KT 9999 BKN040 TEMPO 2618/2621 SHRA SCT012 BKN030CB PROB30 TEMPO 2618/2620 3000 TSRA BKN008 BECMG 2621/2623 VRB04KT 2500 BR BKN006 PROB40 2700/2706 0800 FG BKN004 BECMG 2706/2709 10010KT 9999 SCT030

Decode

Destination Runways

ID Width Length Bearing (true) Bearing (mag) Surface Threshold Offset Overrun Length
08 197 ft / 60 m 8,188 ft / 2,496 m 81.96° 76.14° Asphalt 0 ft / 0 m 0 ft / 0 m
26 197 ft / 60 m 8,188 ft / 2,496 m 261.99° 256.17° Asphalt 0 ft / 0 m 0 ft / 0 m

Popular Alternatives